Date,TemperatureHighF,TemperatureAvgF,TemperatureLowF,DewpointHighF,DewpointAvgF,DewpointLowF,HumidityHigh,HumidityAvg,HumidityLow,PressureMaxIn,PressureMinIn,WindSpeedMaxMPH,WindSpeedAvgMPH,GustSpeedMaxMPH,PrecipitationSumIn
2013-1-1,38,32,21,27,20,8,72,60,48,29.90,29.69,16,8,25,0.00
2013-1-2,32,23,14,19,10,3,69,60,51,30.06,29.87,14,6,20,0.01
2013-1-3,61,20,9,35,4,-3,94,53,31,30.11,29.97,11,4,16,0.04
2013-1-4,39,30,22,25,20,12,79,66,53,29.96,29.79,18,8,28,0.00
2013-1-5,43,35,31,25,22,17,75,59,39,30.23,29.82,16,5,21,0.00
2013-1-6,45,36,30,30,27,21,88,70,52,30.20,29.91,13,4,22,0.00
2013-1-7,40,35,30,30,27,22,85,75,50,30.37,29.93,8,3,14,0.00
2013-1-8,47,40,29,30,29,26,87,64,51,30.34,30.23,11,4,19,0.00
2013-1-9,44,41,35,36,30,-100,76,67,57,30.33,29.95,16,-10,23,0.00
2013-1-10,49,42,36,29,25,23,63,51,39,30.50,30.00,12,5,26,0.00
2013-1-11,40,37,33,36,30,24,94,76,62,30.48,30.19,8,1,11,0.09
2013-1-12,44,41,38,42,40,36,97,95,90,30.20,30.09,6,1,10,0.01
2013-1-13,52,47,42,50,46,41,98,96,92,30.12,29.96,8,3,14,0.00
2013-1-14,62,52,43,52,43,27,96,75,45,30.21,29.82,12,5,16,0.00
2013-1-15,42,39,36,29,26,24,65,60,55,30.28,30.18,7,2,9,0.00
2013-1-16,37,34,31,33,30,24,96,89,63,30.21,29.79,7,2,9,0.17
2013-1-17,44,36,30,34,28,16,94,75,54,30.06,29.82,11,5,18,0.20
2013-1-18,30,24,20,14,4,-4,51,41,30,30.43,30.03,12,4,19,0.00
2013-1-19,49,38,23,33,23,7,75,56,39,30.37,29.86,19,8,30,0.00
2013-1-20,54,43,30,34,27,12,73,55,38,29.89,29.49,25,11,46,0.00
2013-1-21,30,26,23,22,11,4,89,56,38,30.07,29.77,14,5,20,0.00
2013-1-22,28,23,15,21,11,1,88,63,39,30.04,29.72,13,6,21,0.00
2013-1-23,19,13,9,1,-4,-7,54,45,34,30.11,30.03,16,7,20,0.00
2013-1-24,23,13,5,-1,-5,-10,57,45,30,30.18,30.02,19,7,23,0.00
2013-1-25,26,18,10,15,-3,-8,85,42,27,30.27,30.03,13,6,19,0.00
2013-1-26,28,19,14,14,6,-3,84,58,33,30.19,29.97,10,3,22,0.00
2013-1-27,33,23,14,7,4,-2,64,45,29,30.43,30.18,12,5,20,0.00
2013-1-28,31,26,20,28,13,3,95,63,35,30.41,29.98,8,2,11,0.00
2013-1-29,34,30,27,32,28,25,96,91,86,30.17,29.98,5,1,7,0.08
2013-1-30,60,49,33,57,47,32,98,93,84,30.13,29.45,16,7,28,0.12
2013-1-31,61,49,32,58,39,18,93,71,41,29.55,28.94,30,13,37,0.21
2013-2-1,36,30,24,19,12,7,61,48,36,30.04,29.56,20,9,28,0.00
2013-2-2,32,26,19,14,9,4,61,49,36,30.23,30.03,10,5,19,0.00
2013-2-3,27,25,23,22,20,13,86,81,55,30.03,29.70,15,3,15,0.00
2013-2-4,33,26,22,21,14,9,86,61,40,29.91,29.69,20,8,25,0.00
2013-2-5,27,25,22,25,14,9,92,64,47,30.00,29.91,9,3,14,0.00
2013-2-6,42,32,27,28,22,8,92,69,44,30.26,29.89,15,4,20,0.05
2013-2-7,30,26,20,21,6,1,74,45,31,30.50,30.26,9,4,14,0.00
2013-2-8,33,31,24,31,28,21,97,88,75,30.46,29.63,25,14,40,0.01
2013-2-9,21,18,15,20,17,13,94,93,91,30.15,29.73,14,6,24,0.00
2013-2-10,40,26,15,28,18,12,91,75,43,30.37,30.16,9,3,19,0.01
2013-2-11,44,35,25,43,32,15,97,89,66,30.33,29.57,9,3,13,0.10
2013-2-12,43,38,34,39,30,28,96,74,59,29.84,29.57,18,8,29,0.01
2013-2-13,46,36,29,31,27,24,86,71,46,29.84,29.65,9,4,12,0.00
2013-2-14,46,37,33,31,25,21,85,64,41,29.96,29.68,8,3,14,0.00
2013-2-15,51,40,31,36,32,25,93,76,55,29.97,29.88,10,4,19,0.00
2013-2-16,37,35,32,34,30,20,93,83,59,29.92,29.68,9,2,14,0.02
2013-2-17,32,23,18,22,15,5,91,72,49,29.65,29.33,19,9,30,0.00
2013-2-18,33,24,16,10,6,4,62,47,29,30.13,29.63,16,10,26,0.00
2013-2-19,48,37,25,42,25,6,96,65,46,30.14,29.55,15,5,16,0.33
2013-2-20,42,33,27,41,23,13,96,66,47,29.74,29.51,16,9,22,0.00
2013-2-21,35,29,26,18,15,13,67,58,43,30.13,29.74,14,6,22,0.00
2013-2-22,38,32,27,27,23,17,76,69,57,30.36,30.15,11,4,19,0.00
2013-2-23,38,35,32,35,30,24,95,83,72,30.31,29.89,10,3,15,0.18
2013-2-24,38,35,31,37,34,30,97,95,94,29.88,29.65,20,5,20,0.66
2013-2-25,44,35,30,33,30,28,96,83,65,30.22,29.86,7,2,10,0.12
2013-2-26,44,37,31,35,32,29,93,82,69,30.31,30.13,12,4,16,0.00
2013-2-27,41,40,39,40,38,34,98,94,84,30.12,29.52,27,13,36,0.73
2013-2-28,44,39,34,40,36,34,98,91,83,29.61,29.49,6,2,10,0.00
2013-3-1,40,38,36,36,32,29,93,78,67,29.64,29.50,8,2,11,0.00
2013-3-2,46,38,34,32,29,26,77,69,59,29.64,29.59,7,2,14,0.00
2013-3-3,45,37,34,33,30,26,90,74,60,29.61,29.52,7,3,10,0.00
2013-3-4,43,35,31,30,26,23,85,68,51,29.69,29.53,14,7,23,0.00
2013-3-5,43,37,32,35,29,23,88,74,59,30.03,29.69,11,4,21,0.00
2013-3-6,39,38,35,36,33,30,91,84,71,30.07,30.00,31,17,41,0.04
2013-3-7,37,33,31,32,31,30,97,92,77,30.02,29.94,29,9,40,0.29
2013-3-8,41,34,29,34,29,24,97,84,52,30.10,29.89,23,8,33,0.31
2013-3-9,40,36,33,32,28,23,89,74,59,30.32,30.10,13,6,18,0.03
2013-3-10,41,35,31,34,31,28,91,84,71,30.38,30.29,9,3,13,0.00
2013-3-11,50,42,35,41,36,32,92,83,68,30.30,30.12,10,4,13,0.00
2013-3-12,54,48,41,53,46,39,96,93,84,30.13,29.70,12,5,19,0.25
2013-3-13,54,46,39,50,33,22,96,64,37,29.75,29.66,11,6,19,0.00
2013-3-14,41,33,24,26,18,9,67,54,39,29.80,29.67,22,8,24,0.00
2013-3-15,42,31,21,27,14,5,72,51,27,29.84,29.61,16,7,28,0.00
2013-3-16,42,36,30,27,17,9,74,49,26,29.84,29.65,13,2,18,0.00
2013-3-17,41,33,28,22,12,6,62,43,27,30.29,29.84,11,3,18,0.00
2013-3-18,36,28,21,27,12,0,92,52,36,30.43,30.23,11,4,18,0.00
2013-3-19,37,33,29,36,32,27,97,96,91,30.22,29.56,27,12,33,0.50
2013-3-20,40,33,26,26,23,20,90,70,51,29.79,29.66,16,7,25,0.01
2013-3-21,37,32,29,30,24,18,94,72,51,29.80,29.58,7,2,12,0.00
2013-3-22,42,35,30,29,23,19,90,62,41,29.71,29.57,12,6,18,0.01
2013-3-23,44,36,29,25,22,19,77,57,39,29.74,29.60,19,8,22,0.00
2013-3-24,49,39,32,32,26,21,79,60,38,29.79,29.70,13,4,19,0.00
2013-3-25,43,39,34,37,32,26,83,78,69,29.74,29.49,21,6,26,0.00
2013-3-26,53,42,34,33,27,21,93,57,32,29.74,29.49,11,4,15,0.04
2013-3-27,54,44,36,34,26,23,72,51,34,29.83,29.70,11,4,15,0.00
2013-3-28,49,42,38,36,34,30,88,75,53,29.99,29.83,10,3,14,0.00
2013-3-29,56,46,38,38,34,32,80,64,41,30.01,29.94,8,3,11,0.00
2013-3-30,55,47,40,37,31,24,71,55,33,30.06,29.98,9,3,13,0.00
2013-3-31,61,48,35,41,29,21,83,51,24,30.09,29.73,14,5,22,0.02
2013-4-1,63,47,36,45,38,16,96,73,40,29.76,29.46,16,8,24,0.16
2013-4-2,42,35,31,22,17,13,58,47,36,29.92,29.77,21,10,27,0.00
2013-4-3,48,38,31,21,17,13,65,44,26,30.12,29.91,19,10,23,0.00
2013-4-4,57,42,31,27,19,12,60,43,17,30.27,30.03,15,7,20,0.00
2013-4-5,59,46,38,38,29,22,73,53,31,30.03,29.60,12,5,18,0.00
2013-4-6,49,40,34,27,15,4,58,39,17,30.31,29.85,11,4,19,0.00
2013-4-7,54,44,32,40,30,17,80,59,31,30.31,29.99,18,6,24,0.00
2013-4-8,63,51,45,44,42,40,91,72,44,30.08,29.92,11,5,16,0.00
2013-4-9,71,52,45,53,44,39,94,77,40,30.07,29.83,9,4,18,0.12
2013-4-10,56,48,44,47,44,42,94,86,69,29.99,29.84,9,3,15,0.12
2013-4-11,50,45,42,46,41,37,97,87,72,30.12,29.79,12,4,13,0.05
2013-4-12,42,40,38,39,36,32,96,87,72,30.14,29.75,24,12,33,0.28
2013-4-13,47,41,36,41,38,35,95,87,73,29.90,29.72,12,3,20,0.02
2013-4-14,53,47,42,41,34,27,87,63,43,30.18,29.89,9,4,15,0.00
2013-4-15,50,45,39,41,35,31,81,69,52,30.37,30.18,14,4,20,0.00
2013-4-16,65,52,40,50,42,36,90,70,45,30.39,30.04,19,7,24,0.00
2013-4-17,68,57,51,52,40,31,85,56,26,30.30,30.02,15,4,22,0.00
2013-4-18,62,52,46,44,38,31,87,61,36,30.40,30.12,14,7,20,0.00
2013-4-19,74,63,52,62,57,44,96,83,61,30.12,29.64,13,5,21,0.00
2013-4-20,65,55,46,62,42,25,93,66,40,30.17,29.58,8,3,14,0.01
2013-4-21,57,44,37,33,26,20,68,50,26,30.65,30.18,7,2,11,0.00
2013-4-22,50,44,39,37,33,28,78,66,47,30.73,30.56,9,3,13,0.00
2013-4-23,43,42,40,41,39,32,96,89,71,30.56,30.09,8,3,14,0.02
2013-4-24,70,53,42,52,46,41,96,79,43,30.08,29.77,7,1,14,0.00
2013-4-25,68,57,49,52,40,26,91,58,22,30.23,29.81,8,2,12,0.00
2013-4-26,55,49,45,42,39,31,89,70,49,30.40,30.23,9,2,11,0.00
2013-4-27,60,52,43,45,39,33,92,66,42,30.39,30.27,6,1,9,0.00
2013-4-28,63,54,45,45,38,26,79,58,35,30.31,30.19,8,1,11,0.00
2013-4-29,70,57,49,51,40,20,84,57,23,30.25,30.16,5,0,11,0.00
2013-4-30,66,55,48,43,36,26,74,52,26,30.34,30.22,5,1,10,0.00
2013-5-1,66,55,46,48,41,33,74,60,40,30.46,30.34,6,1,8,0.00
2013-5-2,74,56,48,51,44,37,85,69,39,30.45,30.35,10,1,12,0.00
2013-5-3,54,49,44,44,42,40,89,78,69,30.50,30.34,7,2,13,0.00
2013-5-4,56,49,45,44,41,40,83,75,61,30.34,30.29,7,2,11,0.00
2013-5-5,58,49,41,46,42,39,91,78,60,30.31,30.24,7,1,9,0.00
2013-5-6,59,50,42,51,46,41,96,87,66,30.27,30.17,11,2,15,0.01
2013-5-7,73,60,48,59,53,46,93,77,56,30.20,30.11,12,4,14,0.00
2013-5-8,65,59,54,60,56,53,96,91,78,30.22,30.06,11,4,13,0.10
2013-5-9,64,56,54,61,55,54,98,97,89,30.07,29.90,8,2,14,0.98
2013-5-10,68,63,55,62,58,55,98,85,65,29.97,29.90,8,2,11,0.04
2013-5-11,73,64,59,62,59,54,94,84,66,29.93,29.71,12,5,21,0.03
2013-5-12,73,62,52,61,53,32,96,75,41,29.82,29.57,10,2,15,0.02
2013-5-13,63,53,45,39,33,28,63,48,31,30.03,29.82,9,3,14,0.00
2013-5-14,60,52,44,36,33,29,67,50,33,30.06,29.98,8,2,14,0.00
2013-5-15,68,54,43,52,40,33,89,61,34,30.07,29.69,9,3,15,0.00
2013-5-16,81,68,53,52,45,36,93,51,24,29.80,29.63,9,3,16,0.00
2013-5-17,68,60,54,50,44,39,75,58,37,30.22,29.82,8,2,14,0.00
2013-5-18,68,60,50,52,48,43,84,66,48,30.32,30.23,8,2,10,0.00
2013-5-19,64,56,51,55,51,47,95,83,68,30.36,30.24,10,3,15,0.06
2013-5-20,84,66,56,67,60,54,97,83,50,30.24,29.92,6,1,13,0.08
2013-5-21,62,57,51,60,55,50,97,94,87,30.03,29.90,19,4,23,0.01
2013-5-22,60,55,51,57,53,50,98,93,85,30.06,29.91,9,4,15,0.03
2013-5-23,76,64,53,69,61,53,99,90,73,29.94,29.83,10,3,24,0.02
2013-5-24,71,63,51,67,61,50,97,93,78,29.83,29.67,10,2,12,0.37
2013-5-25,53,49,43,51,47,40,97,93,87,29.82,29.70,18,4,21,0.25
2013-5-26,60,50,41,46,41,39,93,73,50,30.11,29.73,12,3,23,0.02
2013-5-27,74,61,45,48,41,35,85,53,27,30.19,30.08,7,2,14,0.00
2013-5-28,65,60,52,54,49,42,85,69,52,30.25,30.17,10,2,12,0.00
2013-5-29,71,61,58,65,59,55,97,92,76,30.21,30.01,6,1,10,0.72
2013-5-30,88,76,61,70,66,61,98,73,49,30.09,30.00,9,2,16,0.00
2013-5-31,94,82,68,71,66,63,87,62,36,30.09,29.93,7,2,13,0.00
2013-6-1,92,81,70,69,65,62,78,61,39,29.98,29.86,9,3,15,0.00
2013-6-2,89,77,68,70,66,63,87,70,48,29.89,29.74,12,4,28,0.00
2013-6-3,78,69,65,69,64,47,96,85,50,29.85,29.77,8,2,10,0.32
2013-6-4,73,65,55,50,46,41,64,51,38,30.10,29.82,7,2,13,0.00
2013-6-5,71,65,56,56,49,44,76,58,39,30.20,30.10,7,2,10,0.00
2013-6-6,69,63,56,59,53,46,82,69,46,30.20,30.11,8,2,11,0.00
2013-6-7,60,56,54,56,54,49,98,94,78,30.14,29.83,13,6,23,2.21
2013-6-8,78,64,54,65,59,54,98,83,61,30.01,29.61,10,3,18,0.52
2013-6-9,82,70,59,61,57,53,90,66,42,30.17,30.01,4,1,10,0.00
2013-6-10,65,62,58,58,57,56,97,85,74,30.22,30.04,8,3,13,0.45
2013-6-11,65,58,55,61,57,54,98,95,84,30.03,29.59,11,4,21,1.12
2013-6-12,71,63,56,60,56,54,98,81,58,29.82,29.57,15,2,18,0.03
2013-6-13,67,59,53,58,54,51,94,84,69,29.83,29.68,11,2,24,0.51
2013-6-14,73,61,53,59,54,50,96,80,52,29.76,29.64,16,4,25,0.83
2013-6-15,81,70,60,56,50,43,83,51,30,29.94,29.77,7,1,14,0.00
2013-6-16,76,68,58,63,55,48,88,63,45,29.95,29.72,8,2,13,0.00
2013-6-17,86,71,62,64,61,56,96,73,35,29.91,29.78,9,2,20,0.41
2013-6-18,72,63,58,64,60,56,95,89,67,29.96,29.89,14,2,20,0.62
2013-6-19,71,64,58,59,55,50,94,73,51,30.15,29.91,9,3,15,0.01
2013-6-20,76,67,57,62,55,50,88,67,42,30.27,30.16,6,2,11,0.00
2013-6-21,85,72,60,67,60,54,82,68,46,30.26,30.19,6,2,12,0.00
2013-6-22,85,73,64,64,59,55,79,63,42,30.23,30.12,7,2,14,0.00
2013-6-23,91,78,66,73,65,56,80,67,51,30.17,30.00,11,3,16,0.00
2013-6-24,94,80,69,73,70,66,96,73,48,30.03,29.87,9,3,20,0.53
2013-6-25,91,79,68,72,68,65,94,71,46,29.92,29.73,10,2,16,0.00
2013-6-26,85,73,64,71,68,64,97,84,61,29.86,29.72,6,2,11,0.52
2013-6-27,65,62,60,64,62,60,99,98,96,29.87,29.77,9,4,13,0.01
2013-6-28,81,70,61,74,67,61,99,92,71,29.78,29.50,12,4,21,0.43
2013-6-29,83,74,70,72,69,66,98,85,63,29.73,29.52,9,2,20,0.14
2013-6-30,86,76,70,75,70,67,94,82,64,29.95,29.73,7,2,14,0.02
2013-7-1,85,76,71,76,72,70,97,89,69,30.09,29.94,7,1,21,0.05
2013-7-2,82,72,60,75,68,59,97,90,76,30.22,30.09,13,2,14,0.00
2013-7-3,88,76,61,75,69,60,98,81,60,30.21,30.13,10,3,15,0.00
2013-7-4,93,82,72,76,73,70,94,74,53,30.21,30.09,9,4,14,0.00
2013-7-5,95,85,75,77,73,71,87,70,49,30.16,30.04,9,3,13,0.00
2013-7-6,94,83,76,76,72,64,87,70,51,30.07,29.97,7,2,10,0.00
2013-7-7,95,81,73,76,70,64,89,71,49,30.02,29.91,6,1,9,0.00
2013-7-8,84,74,65,75,70,64,96,88,73,30.07,29.91,11,3,15,0.23
2013-7-9,70,67,64,66,65,64,98,94,88,30.12,30.05,6,2,10,0.00
2013-7-10,86,74,66,76,70,65,99,89,66,30.08,29.80,9,2,14,0.00
2013-7-11,81,75,72,74,72,69,95,89,78,29.92,29.78,8,1,11,0.34
2013-7-12,72,69,65,70,63,59,94,82,72,30.20,29.92,12,5,20,0.00
2013-7-13,70,67,65,68,65,63,97,93,87,30.32,30.21,10,3,13,0.00
2013-7-14,90,77,68,75,72,68,99,84,56,30.31,30.20,7,1,12,0.00
2013-7-15,89,80,74,75,72,70,92,78,58,30.20,30.10,6,1,8,0.00
2013-7-16,90,80,74,74,70,67,89,72,52,30.17,30.10,8,2,11,0.10
2013-7-17,96,83,74,76,71,67,84,69,43,30.18,30.00,8,2,11,0.00
2013-7-18,90,80,75,76,72,70,89,78,56,30.02,29.95,9,3,12,0.00
2013-7-19,97,87,78,78,75,73,88,70,46,29.95,29.72,15,4,21,0.00
2013-7-20,94,85,77,78,75,67,87,73,46,29.80,29.64,9,3,15,0.02
2013-7-21,76,73,70,69,66,61,94,78,63,29.99,29.80,10,3,12,0.00
2013-7-22,81,71,68,69,68,67,96,90,67,30.03,29.90,11,4,15,0.03
2013-7-23,77,71,68,76,70,67,99,97,90,29.89,29.55,11,3,31,2.20
2013-7-24,84,76,68,74,68,57,98,77,56,29.95,29.59,11,3,19,0.00
2013-7-25,67,61,59,60,56,51,95,83,64,30.11,29.95,14,6,22,0.34
2013-7-26,69,64,60,67,63,59,97,94,85,30.06,29.93,16,6,22,0.77
2013-7-27,82,71,61,69,64,60,96,81,51,30.07,30.00,14,5,18,0.00
2013-7-28,72,68,66,69,66,65,98,95,89,30.02,29.98,11,5,13,0.02
2013-7-29,79,71,66,72,68,66,99,91,76,30.04,29.98,8,2,15,0.02
2013-7-30,82,73,66,68,62,56,96,69,44,30.09,30.03,9,3,16,0.00
2013-7-31,74,71,66,67,62,58,84,73,59,30.14,30.05,10,4,13,0.00
2013-8-1,80,71,65,67,63,61,91,77,58,30.06,29.90,13,3,18,0.00
2013-8-2,82,72,65,68,64,59,96,75,46,29.89,29.80,11,4,22,0.14
2013-8-3,78,72,67,65,63,60,89,75,57,29.88,29.79,18,7,22,0.00
2013-8-4,78,70,63,62,58,54,82,67,44,29.89,29.77,16,4,22,0.00
2013-8-5,75,67,61,54,50,44,76,56,35,30.05,29.89,16,5,18,0.00
2013-8-6,71,66,58,61,54,46,81,65,50,30.16,30.05,13,5,15,0.00
2013-8-7,78,68,60,63,58,52,92,72,45,30.20,30.12,12,4,18,0.00
2013-8-8,80,72,65,71,66,55,92,82,69,30.15,30.01,13,4,18,0.06
2013-8-9,74,73,71,73,71,69,98,94,90,30.04,29.76,14,6,23,1.55
2013-8-10,81,75,69,72,62,55,97,68,44,30.00,29.80,19,5,22,0.00
2013-8-11,79,71,61,60,56,50,82,60,42,30.09,30.01,9,3,14,0.00
2013-8-12,81,72,63,65,60,54,88,67,41,30.03,29.93,10,4,14,0.00
2013-8-13,73,69,66,68,64,62,91,86,80,29.93,29.70,6,2,11,0.00
2013-8-14,73,67,63,64,56,51,93,67,50,29.96,29.67,15,6,26,0.00
2013-8-15,76,67,59,55,52,49,82,61,40,30.12,29.97,9,4,20,0.00
2013-8-16,78,69,58,58,55,51,83,64,40,30.20,30.11,11,5,18,0.00
2013-8-17,70,67,62,61,58,56,87,75,65,30.30,30.20,9,4,12,0.00
2013-8-18,77,69,64,64,60,58,85,74,53,30.28,30.09,7,2,12,0.00
2013-8-19,82,71,61,62,60,57,89,69,45,30.09,29.95,10,4,15,0.00
2013-8-20,85,76,67,64,62,57,81,63,40,30.09,29.98,8,2,12,0.00
2013-8-21,86,76,66,67,64,61,84,68,46,30.15,30.03,10,4,14,0.00
2013-8-22,84,75,68,71,67,64,91,77,56,30.04,29.83,13,6,22,0.00
2013-8-23,73,70,66,69,60,53,92,72,58,30.12,29.82,13,5,21,0.00
2013-8-24,68,64,60,54,51,46,72,62,46,30.34,30.13,13,6,16,0.00
2013-8-25,79,68,58,58,54,49,85,64,42,30.38,30.20,10,4,16,0.00
2013-8-26,80,71,66,67,62,56,82,73,58,30.20,29.88,16,7,24,0.00
2013-8-27,72,68,66,69,66,64,97,93,82,29.91,29.84,11,3,14,0.03
2013-8-28,69,64,61,66,63,61,99,96,86,29.99,29.87,13,4,16,0.01
2013-8-29,64,62,61,64,61,58,99,96,89,30.09,29.96,14,6,20,0.00
2013-8-30,81,70,62,68,64,59,91,81,62,30.04,29.83,13,4,15,0.00
2013-8-31,80,74,69,73,70,67,96,89,79,29.84,29.80,9,4,16,0.00
2013-9-1,77,72,69,74,70,67,97,94,88,29.89,29.80,11,4,23,0.43
2013-9-2,79,73,69,75,71,68,98,93,81,29.89,29.72,11,3,18,0.19
2013-9-3,79,73,67,71,68,60,97,84,69,29.81,29.69,11,4,18,0.00
2013-9-4,79,70,62,60,58,55,87,68,46,29.93,29.81,14,5,20,0.00
2013-9-5,66,63,59,61,57,46,91,81,63,30.15,29.87,12,5,18,0.06
2013-9-6,68,60,53,48,44,38,71,57,37,30.26,30.11,13,5,15,0.00
2013-9-7,77,65,53,57,50,45,79,62,42,30.10,29.87,13,7,20,0.00
2013-9-8,73,66,58,62,53,41,83,64,40,30.10,29.75,22,7,27,0.00
2013-9-9,69,60,52,52,45,41,76,60,39,30.25,30.10,13,4,18,0.00
2013-9-10,75,67,59,69,62,51,93,83,74,30.17,30.04,13,6,23,0.03
2013-9-11,94,80,69,77,72,67,96,78,46,30.08,29.94,13,6,19,0.00
2013-9-12,86,76,67,74,70,65,95,83,65,29.97,29.68,19,6,25,0.45
2013-9-13,72,67,61,68,64,56,98,91,81,29.75,29.57,15,3,21,0.26
2013-9-14,67,62,58,56,54,51,84,75,64,30.07,29.76,10,4,20,0.00
2013-9-15,71,62,53,53,51,48,89,70,50,30.17,30.07,16,4,16,0.00
2013-9-16,67,59,51,55,50,39,84,73,60,30.26,30.03,24,6,27,0.01
2013-9-17,57,52,45,47,40,37,79,65,51,30.44,30.26,19,6,23,0.00
2013-9-18,72,60,48,52,46,42,87,62,34,30.34,30.15,9,4,14,0.00
2013-9-19,68,61,52,56,52,47,86,73,59,30.15,30.04,10,4,11,0.00
2013-9-20,68,62,55,59,56,52,91,82,71,30.10,30.01,9,4,12,0.00
2013-9-21,75,66,58,65,61,56,97,82,60,30.04,29.75,18,6,23,0.00
2013-9-22,71,66,56,67,58,47,95,77,53,29.83,29.62,20,7,24,0.26
2013-9-23,62,55,50,46,43,40,75,65,52,30.01,29.83,18,7,23,0.00
2013-9-24,65,55,46,49,43,40,83,67,45,30.00,29.83,15,5,21,0.00
2013-9-25,59,56,51,50,47,45,82,73,65,29.99,29.89,10,4,18,0.00
2013-9-26,60,57,55,52,49,47,80,75,68,30.13,30.00,12,5,16,0.00
2013-9-27,61,59,56,54,52,49,83,77,65,30.27,30.13,14,6,19,0.00
2013-9-28,65,59,55,58,54,51,96,86,75,30.34,30.26,9,4,12,0.00
2013-9-29,59,56,53,56,54,52,98,91,80,30.28,30.14,10,4,12,0.01
2013-9-30,61,57,52,55,53,50,98,87,70,30.13,29.98,7,3,10,0.00
2013-10-1,72,62,53,58,54,51,94,77,54,29.98,29.86,7,3,10,0.00
2013-10-2,78,68,58,61,58,54,89,73,54,29.95,29.83,15,6,21,0.00
2013-10-3,77,67,60,58,53,46,84,62,33,30.09,29.95,10,3,12,0.00
2013-10-4,63,60,57,58,54,51,90,80,67,30.09,30.04,6,2,10,0.11
2013-10-5,64,61,59,59,57,54,92,87,73,30.14,30.06,9,3,11,0.00
2013-10-6,60,58,55,58,56,54,97,94,91,30.24,30.13,18,8,21,0.24
2013-10-7,76,67,59,69,64,55,99,90,76,30.14,29.84,20,6,34,0.14
2013-10-8,64,60,55,55,46,41,78,61,43,30.38,29.91,12,6,20,0.00
2013-10-9,58,56,53,49,46,42,82,70,59,30.48,30.38,22,10,26,0.00
2013-10-10,58,55,49,55,51,47,93,87,81,30.37,30.19,15,6,18,0.00
2013-10-11,62,57,52,56,53,50,97,86,75,30.19,30.12,13,6,18,0.00
2013-10-12,60,57,55,57,53,49,95,88,79,30.41,30.16,23,11,27,0.00
2013-10-13,58,55,50,51,48,45,91,77,70,30.46,30.38,14,8,23,0.00
2013-10-14,58,52,44,52,47,42,93,82,63,30.42,30.27,9,4,12,0.00
2013-10-15,60,56,52,55,52,49,92,84,72,30.28,30.20,11,5,13,0.00
2013-10-16,58,56,53,56,54,52,96,92,88,30.19,29.93,10,4,15,0.00
2013-10-17,71,62,54,61,58,53,98,87,68,29.93,29.74,11,4,15,0.00
2013-10-18,67,62,55,61,52,43,96,72,48,29.92,29.63,14,6,24,0.04
2013-10-19,66,57,47,49,44,41,80,65,42,30.00,29.78,11,5,16,0.00
2013-10-20,62,56,51,52,42,34,92,63,38,30.03,29.71,18,5,25,0.00
2013-10-21,67,55,44,49,41,37,78,62,39,30.13,30.02,13,4,18,0.00
2013-10-22,68,57,49,53,48,38,92,72,52,30.02,29.72,13,5,20,0.00
2013-10-23,52,49,44,38,35,32,78,60,48,29.81,29.61,8,3,18,0.00
2013-10-24,53,47,42,37,32,26,75,56,38,29.90,29.65,15,8,25,0.00
2013-10-25,49,44,38,36,31,27,81,61,45,30.17,29.90,15,6,22,0.00
2013-10-26,55,46,36,38,32,27,82,61,36,30.17,29.90,21,8,30,0.00
2013-10-27,55,49,43,40,36,31,87,62,45,30.08,29.84,15,6,26,0.03
2013-10-28,58,47,38,37,33,25,82,59,42,30.36,30.09,19,7,25,0.00
2013-10-29,46,41,37,36,31,25,83,68,53,30.45,30.37,10,5,15,0.00
2013-10-30,53,44,38,45,39,34,88,82,65,30.39,30.22,7,3,13,0.05
2013-10-31,63,53,41,59,50,39,95,89,80,30.26,29.83,18,5,24,0.02
2013-11-1,70,65,59,63,58,54,94,80,66,29.81,29.48,27,7,42,0.04
2013-11-2,64,57,52,54,47,41,87,71,42,29.73,29.61,0,0,0,0.00
2013-11-3,54,43,35,47,34,19,93,72,43,30.42,29.73,0,0,0,0.02
2013-11-4,40,36,32,27,23,20,71,58,47,30.72,30.43,0,0,0,0.00
2013-11-5,46,40,34,37,31,25,77,68,53,30.74,30.54,0,0,0,0.00
2013-11-6,59,51,42,52,43,35,90,74,55,30.54,30.05,0,0,0,0.00
2013-11-7,66,55,44,59,50,32,94,85,64,30.06,29.69,0,0,0,0.23
2013-11-8,48,42,36,35,29,23,71,61,52,30.11,29.83,0,0,0,0.00
2013-11-9,45,40,33,32,26,23,73,58,42,30.22,30.07,0,0,0,0.00
2013-11-10,55,47,42,43,37,31,89,69,55,30.06,29.75,0,0,0,0.04
2013-11-11,51,46,41,35,30,26,68,55,38,30.12,29.86,0,0,0,0.00
2013-11-12,50,37,30,40,26,17,90,66,53,30.20,29.91,0,0,0,0.08
2013-11-13,37,31,27,19,17,13,69,57,41,30.30,30.19,0,0,0,0.00
2013-11-14,50,40,30,28,22,17,63,49,35,30.19,30.06,0,0,0,0.00
2013-11-15,60,48,38,36,25,17,66,43,23,30.22,30.12,0,0,0,0.00
2013-11-16,54,47,43,39,33,27,79,59,36,30.34,30.20,0,0,0,0.00
2013-11-17,56,48,41,55,46,38,98,91,79,30.33,29.88,0,0,0,0.03
2013-11-18,65,59,49,62,49,35,99,72,44,29.86,29.55,0,0,0,0.14
2013-11-19,49,41,33,35,24,19,61,53,42,30.28,29.67,0,0,0,0.00
2013-11-20,41,35,30,19,17,13,63,48,34,30.64,30.29,0,0,0,0.00
2013-11-21,47,39,31,32,22,17,68,52,37,30.66,30.41,0,0,0,0.00
2013-11-22,46,44,41,46,41,32,98,90,70,30.40,29.84,0,0,0,0.18
2013-11-23,48,42,31,46,28,18,98,61,37,29.90,29.79,0,0,0,0.01
2013-11-24,31,25,22,20,9,0,73,50,31,30.19,29.80,0,0,0,0.00
2013-11-25,34,26,18,18,6,-3,59,43,24,30.38,30.20,0,0,0,0.00
2013-11-26,43,37,32,42,25,18,97,63,46,30.34,30.07,0,0,0,0.06
2013-11-27,61,51,38,60,50,34,98,95,85,30.05,29.23,0,0,0,1.19
2013-11-28,38,32,26,34,19,7,84,59,36,30.46,29.47,0,0,0,0.00
2013-11-29,33,28,24,17,13,7,67,54,39,30.76,30.45,0,0,0,0.00
2013-11-30,34,28,21,27,18,10,76,65,57,30.80,30.47,0,0,0,0.00
2013-12-1,46,39,34,41,36,27,97,88,77,30.46,30.02,0,0,0,0.25
2013-12-2,40,38,37,39,37,36,97,95,93,30.02,29.94,0,0,0,0.00
2013-12-3,47,40,35,37,35,33,97,83,62,29.96,29.86,0,0,0,0.01
2013-12-4,45,39,34,33,30,26,87,71,55,30.22,29.97,0,0,0,0.00
2013-12-5,56,45,36,55,42,30,98,89,75,30.23,29.93,0,0,0,0.00
2013-12-6,56,49,36,55,45,34,97,85,65,30.15,29.88,0,0,0,0.28
2013-12-7,40,36,32,34,27,18,94,73,55,30.47,30.10,0,0,0,0.10
2013-12-8,32,30,28,20,17,15,63,58,54,30.62,30.47,0,0,0,0.00
2013-12-9,42,36,27,41,34,18,98,94,62,30.52,29.90,0,0,0,0.21
2013-12-10,36,32,27,34,29,18,96,88,64,30.02,29.80,0,0,0,0.02
2013-12-11,30,27,24,22,20,18,82,75,68,30.23,30.02,0,0,0,0.00
2013-12-12,26,23,18,20,9,2,79,57,38,30.29,30.09,0,0,0,0.00
2013-12-13,29,23,17,19,12,7,76,63,51,30.39,30.01,0,0,0,0.00
2013-12-14,31,18,11,31,11,-3,97,73,53,30.62,30.15,0,0,0,0.00
2013-12-15,38,30,22,37,28,20,98,92,78,30.14,29.39,0,0,4,0.21
2013-12-16,28,26,21,23,14,8,83,63,44,30.22,29.76,0,0,0,0.00
2013-12-17,30,18,10,29,13,2,96,80,58,30.30,29.95,0,0,0,0.00
2013-12-18,34,27,19,22,21,17,94,78,58,30.09,29.87,0,0,0,0.00
2013-12-19,42,35,27,28,24,21,79,66,52,30.13,29.97,0,0,0,0.00
2013-12-20,54,43,35,38,33,27,80,67,51,30.14,29.93,0,0,0,0.00
2013-12-21,58,50,44,49,45,35,88,80,70,29.98,29.88,0,0,0,0.00
2013-12-22,56,42,35,54,41,35,98,96,86,30.05,29.82,0,0,0,0.02
2013-12-23,40,35,32,38,34,32,98,98,89,30.11,29.98,0,0,0,0.60
2013-12-24,40,33,28,36,23,16,89,66,53,30.21,30.07,0,0,0,0.00
2013-12-25,28,20,15,17,7,2,67,57,45,30.57,30.21,0,0,0,0.00
2013-12-26,34,29,20,32,24,8,95,83,57,30.52,30.09,0,0,0,0.01
2013-12-27,34,30,26,24,22,20,87,71,58,30.29,30.20,0,0,0,0.00
2013-12-28,46,37,29,30,26,22,78,65,49,30.23,30.01,0,0,0,0.00
2013-12-29,44,39,36,41,33,27,98,81,65,30.05,29.39,0,0,0,0.81
2013-12-30,42,34,20,35,25,11,94,72,44,30.17,29.52,0,0,0,0.01
2013-12-31,26,20,15,17,7,-1,71,56,44,30.19,30.05,0,0,0,0.00
2014-1-1,28,24,19,12,9,6,64,55,46,30.40,30.20,0,0,0,0.00
2014-1-2,26,19,5,24,16,2,95,90,59,30.38,29.83,0,0,0,0.00